Wayland, New York
Current Conditions -  °F | °C
As of 8:54 AM on Sunday 25 Jan 2015 (Local Time) from KDSV Reporting Station
Clear Clear  
Wind Chill:   Ceiling: Unl
Heat Index: 20°   Visibility: 10mi
Dew Point: 10°   Wind: 16mph
Humidity: 65%   Direction: 330°NNW
Pressure: 29.84"   Gusts: 23mph
Location:  42.57°N, 77.59°W
Report Text: KDSV 251354Z AUTO 33014G20KT 10SM CLR M07/M12 A2984 RMK AO2 SLP121 T10671122
Loading
Personal Weather Stations






























Interactive Weather Map New forecast layout! Learn more

10-Day Weather Forecast

Advertisements
Track Severe Weather on mobile